createdAt,value
2022-08-12T00:00:09.815Z,102259.78
2022-08-12T00:02:55.917Z,102256.28
2022-08-12T00:05:58.254Z,102249.16
2022-08-12T00:08:51.058Z,102250.13
2022-08-12T00:11:37.294Z,102251.91
2022-08-12T00:14:23.202Z,102249.34
2022-08-12T00:17:09.375Z,102214.94
2022-08-12T00:19:54.949Z,102242.13
2022-08-12T00:22:41.474Z,102248.31
2022-08-12T00:25:55.849Z,102248.31
2022-08-12T00:28:35.888Z,102198.88
2022-08-12T00:31:21.581Z,102236.72
2022-08-12T00:34:07.348Z,102244.81
2022-08-12T00:36:53.038Z,102243.03
2022-08-12T00:39:39.017Z,102234.13
2022-08-12T00:42:12.140Z,102235.03
2022-08-12T00:44:48.226Z,102234.22
2022-08-12T00:47:24.600Z,102241.19
2022-08-12T00:49:55.092Z,102232.41
2022-08-12T00:52:24.927Z,102227.09
2022-08-12T00:54:57.484Z,102231.56
2022-08-12T00:57:29.978Z,102234.28
2022-08-12T01:00:00.302Z,102221.91
2022-08-12T01:02:31.095Z,102214.78
2022-08-12T01:05:19.596Z,102225.31
2022-08-12T01:08:06.095Z,102230.56
2022-08-12T01:10:55.564Z,102230.56
2022-08-12T01:13:26.282Z,102214.63
2022-08-12T01:15:56.539Z,102230.41
2022-08-12T01:18:28.159Z,102233.06
2022-08-12T01:21:08.263Z,102231.25
2022-08-12T01:24:29.971Z,102229.50
2022-08-12T01:26:55.035Z,102230.28
2022-08-12T01:29:26.962Z,102238.28
2022-08-12T01:31:59.902Z,102218.78
2022-08-12T01:34:36.303Z,102220.63
2022-08-12T01:37:08.664Z,102232.94
2022-08-12T01:40:33.339Z,102232.88
2022-08-12T01:42:46.283Z,102226.88
2022-08-12T01:45:15.351Z,102228.66
2022-08-12T01:48:03.762Z,102236.69
2022-08-12T01:50:43.168Z,102221.69
2022-08-12T01:53:13.845Z,102214.59
2022-08-12T01:55:44.774Z,102226.00
2022-08-12T01:58:21.069Z,102217.22
2022-08-12T02:00:59.360Z,102225.19
2022-08-12T02:04:13.962Z,102217.28
2022-08-12T02:07:07.578Z,102235.91
2022-08-12T02:10:51.190Z,102234.13
2022-08-12T02:13:10.080Z,102220.09
2022-08-12T02:15:46.445Z,102227.16
2022-08-12T02:18:26.336Z,102233.38
2022-08-12T02:21:02.796Z,102236.13
2022-08-12T02:23:32.703Z,102230.81
2022-08-12T02:26:06.919Z,102211.47
2022-08-12T02:28:35.748Z,102232.59
2022-08-12T02:31:09.229Z,102223.69
2022-08-12T02:33:38.985Z,102221.91
2022-08-12T02:36:08.900Z,102199.06
2022-08-12T02:38:43.815Z,102216.69
2022-08-12T02:41:17.098Z,102230.81
2022-08-12T02:43:51.733Z,102225.53
2022-08-12T02:46:29.322Z,102222.00
2022-08-12T02:49:02.337Z,102192.78
2022-08-12T02:51:33.190Z,102216.63
2022-08-12T02:54:05.523Z,102190.13
2022-08-12T02:56:38.114Z,102218.25
2022-08-12T02:59:12.518Z,102215.56
2022-08-12T03:01:48.780Z,102212.00
2022-08-12T03:04:26.937Z,102218.41
2022-08-12T03:07:03.913Z,102217.59
2022-08-12T03:09:39.840Z,102216.78
2022-08-12T03:12:26.808Z,102222.88
2022-08-12T03:15:05.833Z,102204.34
2022-08-12T03:17:46.546Z,102214.88
2022-08-12T03:20:41.179Z,102221.91
2022-08-12T03:23:19.408Z,102206.91
2022-08-12T03:26:02.229Z,102218.44
2022-08-12T03:28:51.887Z,102207.97
2022-08-12T03:31:23.357Z,102231.78
2022-08-12T03:34:01.660Z,102228.22
2022-08-12T03:36:32.527Z,102213.34
2022-08-12T03:42:01.441Z,102232.72
2022-08-12T03:44:53.779Z,102239.81
2022-08-12T03:47:50.005Z,102239.97
2022-08-12T03:50:39.315Z,102240.81
2022-08-12T03:53:28.971Z,102209.91
2022-08-12T03:56:15.458Z,102249.59
2022-08-12T03:59:03.189Z,102229.34
2022-08-12T04:01:32.324Z,102245.16
2022-08-12T04:04:11.032Z,102240.78
2022-08-12T04:06:46.359Z,102227.69
2022-08-12T04:09:16.128Z,102227.66
2022-08-12T04:12:06.464Z,102252.41
2022-08-12T04:14:37.975Z,102229.38
2022-08-12T04:17:06.878Z,102248.91
2022-08-12T04:19:35.607Z,102250.63
2022-08-12T04:22:04.095Z,102248.84
2022-08-12T04:24:35.505Z,102254.16
2022-08-12T04:27:09.130Z,102251.38
2022-08-12T04:30:21.085Z,102251.41
2022-08-12T04:32:28.789Z,102257.53
2022-08-12T04:34:57.082Z,102260.19
2022-08-12T04:37:25.323Z,102259.28
2022-08-12T04:39:54.836Z,102264.59
2022-08-12T04:42:26.353Z,102259.28
2022-08-12T04:44:55.968Z,102262.84
2022-08-12T04:47:25.600Z,102255.75
2022-08-12T04:49:54.136Z,102264.50
2022-08-12T04:52:23.212Z,102222.13
2022-08-12T04:54:52.187Z,102260.84
2022-08-12T04:57:20.572Z,102245.84
2022-08-12T04:59:49.865Z,102260.78
2022-08-12T05:02:22.848Z,102262.53
2022-08-12T05:04:52.927Z,102245.81
2022-08-12T05:07:24.375Z,102254.56
2022-08-12T05:09:58.936Z,102259.06
2022-08-12T05:12:34.654Z,102262.47
2022-08-12T05:15:03.337Z,102264.16
2022-08-12T05:17:49.153Z,102265.81
2022-08-12T05:20:17.909Z,102264.00
2022-08-12T05:22:46.111Z,102229.47
2022-08-12T05:25:18.367Z,102258.53
2022-08-12T05:27:57.909Z,102262.00
2022-08-12T05:30:27.745Z,102274.31
2022-08-12T05:33:00.087Z,102258.31
2022-08-12T05:35:29.123Z,102238.84
2022-08-12T05:38:11.164Z,102261.75
2022-08-12T05:40:39.936Z,102244.03
2022-08-12T05:43:08.791Z,102265.13
2022-08-12T05:45:40.492Z,102265.06
2022-08-12T05:48:13.007Z,102259.78
2022-08-12T05:50:41.502Z,102256.19
2022-08-12T05:53:10.468Z,102227.88
2022-08-12T05:55:39.117Z,102260.47
2022-08-12T05:58:08.356Z,102246.22
2022-08-12T06:00:38.151Z,102252.41
2022-08-12T06:03:08.434Z,102255.88
2022-08-12T06:05:52.675Z,102243.53
2022-08-12T06:08:24.922Z,102262.84
2022-08-12T06:10:53.888Z,102260.00
2022-08-12T06:13:28.170Z,102259.84
2022-08-12T06:15:57.739Z,102255.44
2022-08-12T06:18:29.775Z,102258.78
2022-08-12T06:21:01.507Z,102251.56
2022-08-12T06:23:31.095Z,102263.19
2022-08-12T06:26:00.747Z,102261.31
2022-08-12T06:28:30.628Z,102251.34
2022-08-12T06:31:25.856Z,102253.03
2022-08-12T06:34:00.797Z,102256.59
2022-08-12T06:36:42.812Z,102247.47
2022-08-12T06:39:14.826Z,102250.16
2022-08-12T06:42:05.192Z,102252.72
2022-08-12T06:44:51.691Z,102250.97
2022-08-12T06:47:22.113Z,102253.56
2022-08-12T06:49:50.380Z,102257.78
2022-08-12T06:52:23.261Z,102245.19
2022-08-12T06:54:53.647Z,102251.25
2022-08-12T06:58:06.683Z,102252.09
2022-08-12T07:00:13.587Z,102253.88
2022-08-12T07:02:42.456Z,102241.34
2022-08-12T07:05:11.226Z,102256.28
2022-08-12T07:07:41.984Z,102252.69
2022-08-12T07:10:10.919Z,102251.66
2022-08-12T07:12:39.092Z,102253.28
2022-08-12T07:15:10.810Z,102254.94
2022-08-12T07:17:41.879Z,102254.81
2022-08-12T07:20:29.702Z,102244.16
2022-08-12T07:23:03.558Z,102244.16
2022-08-12T07:25:37.376Z,102252.78
2022-08-12T07:28:16.048Z,102265.97
2022-08-12T07:30:48.966Z,102262.22
2022-08-12T07:33:18.879Z,102262.09
2022-08-12T07:35:48.553Z,102245.47
2022-08-12T07:38:29.742Z,102269.88
2022-08-12T07:41:03.478Z,102265.53
2022-08-12T07:43:33.015Z,102269.56
2022-08-12T07:46:02.959Z,102264.13
2022-08-12T07:48:38.584Z,102269.47
2022-08-12T07:51:08.005Z,102271.13
2022-08-12T07:53:59.882Z,102266.47
2022-08-12T07:56:27.753Z,102272.56
2022-08-12T07:58:59.559Z,102274.41
2022-08-12T08:01:28.821Z,102256.59
2022-08-12T08:04:23.447Z,102249.53
2022-08-12T08:06:52.050Z,102264.84
2022-08-12T08:09:24.281Z,102259.13
2022-08-12T08:12:18.977Z,102257.44
2022-08-12T08:14:49.959Z,102265.47
2022-08-12T08:17:19.176Z,102243.72
2022-08-12T08:20:02.536Z,102241.47
2022-08-12T08:22:35.620Z,102265.44
2022-08-12T08:25:36.334Z,102265.47
2022-08-12T08:28:03.835Z,102271.38
2022-08-12T08:30:33.904Z,102269.22
2022-08-12T08:33:02.026Z,102263.75
2022-08-12T08:35:46.151Z,102254.75
2022-08-12T08:38:28.715Z,102270.50
2022-08-12T08:42:16.494Z,102265.25
2022-08-12T08:44:11.330Z,102264.16
2022-08-12T08:46:40.305Z,102272.00
2022-08-12T08:49:08.855Z,102285.78
2022-08-12T08:51:37.199Z,102278.91
2022-08-12T08:54:07.055Z,102277.97
2022-08-12T08:56:44.269Z,102283.28
2022-08-12T08:59:14.052Z,102284.13
2022-08-12T09:01:44.515Z,102280.88
2022-08-12T09:05:09.812Z,102287.34
2022-08-12T09:07:16.834Z,102270.81
2022-08-12T09:10:03.613Z,102286.25
2022-08-12T09:12:55.087Z,102277.94
2022-08-12T09:15:35.457Z,102277.94
2022-08-12T09:20:55.021Z,102276.97
2022-08-12T09:24:00.369Z,102279.69
2022-08-12T09:26:12.989Z,102277.31
2022-08-12T09:28:42.993Z,102271.66
2022-08-12T09:32:03.585Z,102283.22
2022-08-12T09:34:25.313Z,102247.84
2022-08-12T09:37:00.620Z,102284.72
2022-08-12T09:40:00.901Z,102276.84
2022-08-12T09:42:43.350Z,102283.22
2022-08-12T09:46:11.676Z,102289.81
2022-08-12T09:48:19.778Z,102265.69
2022-08-12T09:50:55.148Z,102291.91
2022-08-12T09:53:36.261Z,102283.41
2022-08-12T09:57:00.512Z,102281.72
2022-08-12T09:59:01.415Z,102281.63
2022-08-12T10:01:35.254Z,102281.31
2022-08-12T10:04:20.882Z,102273.72
2022-08-12T10:06:55.569Z,102290.13
2022-08-12T10:09:28.542Z,102283.84
2022-08-12T10:12:32.957Z,102285.44
2022-08-12T10:15:02.753Z,102293.44
2022-08-12T10:17:32.880Z,102287.91
2022-08-12T10:20:01.518Z,102285.25
2022-08-12T10:22:38.867Z,102284.41
2022-08-12T10:25:24.647Z,102257.81
2022-08-12T10:28:30.736Z,102280.66
2022-08-12T10:31:01.151Z,102284.25
2022-08-12T10:33:33.494Z,102277.25
2022-08-12T10:36:05.609Z,102275.28
2022-08-12T10:38:41.487Z,102271.50
2022-08-12T10:41:57.718Z,102247.84
2022-08-12T10:44:18.591Z,102278.66
2022-08-12T10:46:49.551Z,102274.59
2022-08-12T10:50:02.439Z,102251.91
2022-08-12T10:52:32.991Z,102268.88
2022-08-12T10:54:58.278Z,102252.34
2022-08-12T10:58:15.126Z,102255.56
2022-08-12T11:00:30.877Z,102270.94
2022-08-12T11:04:23.175Z,102258.75
2022-08-12T11:07:06.571Z,102233.69
2022-08-12T11:08:47.113Z,102228.94
2022-08-12T11:12:08.250Z,102258.88
2022-08-12T11:14:13.146Z,102247.06
2022-08-12T11:17:34.168Z,102256.88
2022-08-12T11:19:46.612Z,102239.88
2022-08-12T11:22:18.055Z,102251.06
2022-08-12T11:24:51.384Z,102242.28
2022-08-12T11:27:20.104Z,102236.31
2022-08-12T11:30:06.469Z,102221.91
2022-08-12T11:32:38.543Z,102236.97
2022-08-12T11:35:08.839Z,102219.81
2022-08-12T11:37:59.392Z,102221.53
2022-08-12T11:40:28.496Z,102219.31
2022-08-12T11:43:03.616Z,102224.81
2022-08-12T11:45:46.851Z,102232.06
2022-08-12T11:48:15.763Z,102217.69
2022-08-12T11:50:44.634Z,102224.56
2022-08-12T11:53:58.962Z,102233.94
2022-08-12T11:56:03.399Z,102235.09
2022-08-12T12:01:02.723Z,102236.56
2022-08-12T12:02:01.849Z,102230.28
2022-08-12T12:04:10.360Z,102220.16
2022-08-12T12:06:38.688Z,102230.09
2022-08-12T12:09:09.081Z,102219.44
2022-08-12T12:11:49.202Z,102222.00
2022-08-12T12:14:18.107Z,102231.06
2022-08-12T12:16:49.979Z,102210.03
2022-08-12T12:19:19.273Z,102226.13
2022-08-12T12:21:49.578Z,102203.81
2022-08-12T12:24:21.268Z,102219.09
2022-08-12T12:27:00.030Z,102210.97
2022-08-12T12:30:18.484Z,102209.75
2022-08-12T12:32:28.940Z,102213.00
2022-08-12T12:35:14.369Z,102208.34
2022-08-12T12:38:04.527Z,102205.78
2022-08-12T12:40:39.704Z,102199.09
2022-08-12T12:43:11.079Z,102212.06
2022-08-12T12:45:45.784Z,102212.06
2022-08-12T12:48:17.394Z,102219.72
2022-08-12T12:50:51.581Z,102216.78
2022-08-12T12:54:08.746Z,102202.31
2022-08-12T12:56:17.817Z,102206.00
2022-08-12T12:58:47.210Z,102203.56
2022-08-12T13:01:26.549Z,102211.50
2022-08-12T13:04:02.619Z,102211.34
2022-08-12T13:06:32.370Z,102212.69
2022-08-12T13:09:03.944Z,102217.03
2022-08-12T13:11:39.055Z,102207.31
2022-08-12T13:14:27.889Z,102203.69
2022-08-12T13:16:58.410Z,102202.88
2022-08-12T13:19:38.644Z,102212.84
2022-08-12T13:22:21.305Z,102203.19
2022-08-12T13:24:55.629Z,102204.09
2022-08-12T13:27:34.694Z,102208.28
2022-08-12T13:30:13.061Z,102209.88
2022-08-12T13:32:43.626Z,102205.81
2022-08-12T13:36:03.334Z,102198.41
2022-08-12T13:38:14.581Z,102189.41
2022-08-12T13:40:58.683Z,102193.34
2022-08-12T13:43:40.627Z,102208.41
2022-08-12T13:46:12.118Z,102191.16
2022-08-12T13:48:45.095Z,102191.53
2022-08-12T13:51:14.153Z,102186.94
2022-08-12T13:53:58.210Z,102185.34
2022-08-12T13:56:35.435Z,102202.75
2022-08-12T13:59:08.926Z,102198.09
2022-08-12T14:01:40.264Z,102205.00
2022-08-12T14:04:11.438Z,102205.38
2022-08-12T14:06:40.676Z,102206.25
2022-08-12T14:09:17.899Z,102208.50
2022-08-12T14:11:58.548Z,102201.38
2022-08-12T14:14:31.379Z,102210.75
2022-08-12T14:17:05.568Z,102200.84
2022-08-12T14:19:35.958Z,102197.34
2022-08-12T14:22:10.697Z,102191.31
2022-08-12T14:24:41.177Z,102196.66
2022-08-12T14:27:11.446Z,102194.84
2022-08-12T14:30:04.574Z,102160.16
2022-08-12T14:32:35.517Z,102176.53
2022-08-12T14:35:09.662Z,102193.69
2022-08-12T14:37:56.299Z,102165.13
2022-08-12T14:40:27.830Z,102188.97
2022-08-12T14:42:57.462Z,102175.50
2022-08-12T14:45:37.049Z,102183.31
2022-08-12T14:48:15.261Z,102190.19
2022-08-12T14:51:09.430Z,102184.00
2022-08-12T14:56:59.221Z,102160.97
2022-08-12T14:59:57.588Z,102149.63
2022-08-12T15:02:21.273Z,102165.25
2022-08-12T15:04:59.364Z,102170.31
2022-08-12T15:07:33.337Z,102167.03
2022-08-12T15:10:25.395Z,102173.34
2022-08-12T15:13:07.994Z,102169.59
2022-08-12T15:15:43.775Z,102157.84
2022-08-12T15:18:21.424Z,102162.44
2022-08-12T15:20:50.816Z,102157.63
2022-08-12T15:23:21.363Z,102170.41
2022-08-12T15:25:59.783Z,102151.66
2022-08-12T15:28:33.963Z,102132.25
2022-08-12T15:31:03.434Z,102168.59
2022-08-12T15:33:52.721Z,102157.94
2022-08-12T15:36:54.127Z,102153.00
2022-08-12T15:39:17.023Z,102124.81
2022-08-12T15:41:49.843Z,102152.84
2022-08-12T15:44:38.321Z,102147.06
2022-08-12T15:47:08.674Z,102156.16
2022-08-12T15:49:54.131Z,102155.22
2022-08-12T15:52:27.597Z,102152.41
2022-08-12T15:54:58.887Z,102150.66
2022-08-12T15:57:27.693Z,102136.75
2022-08-12T16:00:07.081Z,102149.31
2022-08-12T16:02:41.957Z,102149.81
2022-08-12T16:06:12.415Z,102149.13
2022-08-12T16:08:18.401Z,102156.84
2022-08-12T16:10:48.844Z,102140.22
2022-08-12T16:13:32.639Z,102150.13
2022-08-12T16:16:03.994Z,102145.72
2022-08-12T16:18:40.602Z,102155.72
2022-08-12T16:21:51.760Z,102143.88
2022-08-12T16:24:08.351Z,102144.69
2022-08-12T16:26:40.893Z,102146.72
2022-08-12T16:29:15.680Z,102148.09
2022-08-12T16:31:44.826Z,102150.66
2022-08-12T16:34:26.116Z,102149.19
2022-08-12T16:37:09.023Z,102141.66
2022-08-12T16:40:00.875Z,102143.66
2022-08-12T16:42:28.868Z,102137.25
2022-08-12T16:45:02.010Z,102137.41
2022-08-12T16:47:57.677Z,102128.78
2022-08-12T16:50:30.999Z,102119.56
2022-08-12T16:53:03.295Z,102124.81
2022-08-12T16:55:41.838Z,102130.09
2022-08-12T16:58:18.729Z,102119.31
2022-08-12T17:00:57.032Z,102124.38
2022-08-12T17:03:28.962Z,102114.25
2022-08-12T17:05:58.575Z,102123.78
2022-08-12T17:08:28.904Z,102131.03
2022-08-12T17:10:58.776Z,102122.44
2022-08-12T17:13:27.267Z,102121.22
2022-08-12T17:16:05.092Z,102115.34
2022-08-12T17:18:44.009Z,102116.88
2022-08-12T17:21:40.146Z,102112.66
2022-08-12T17:24:15.713Z,102116.03
2022-08-12T17:26:49.277Z,102112.81
2022-08-12T17:29:32.054Z,102111.16
2022-08-12T17:32:10.265Z,102104.69
2022-08-12T17:34:56.472Z,102113.59
2022-08-12T17:37:24.628Z,102102.72
2022-08-12T17:40:06.380Z,102102.16
2022-08-12T17:42:42.804Z,102109.31
2022-08-12T17:45:17.899Z,102098.94
2022-08-12T17:48:01.905Z,102106.44
2022-08-12T17:50:36.029Z,102110.06
2022-08-12T17:53:05.812Z,102101.44
2022-08-12T17:55:47.845Z,102105.16
2022-08-12T17:58:18.778Z,102103.28
2022-08-12T18:00:51.959Z,102107.88
2022-08-12T18:03:58.178Z,102078.94
2022-08-12T18:06:14.619Z,102107.16
2022-08-12T18:08:53.478Z,102087.25
2022-08-12T18:12:05.548Z,102112.03
2022-08-12T18:14:31.326Z,102104.16
2022-08-12T18:17:01.842Z,102111.03
2022-08-12T18:19:34.186Z,102111.41
2022-08-12T18:22:21.990Z,102106.22
2022-08-12T18:25:02.662Z,102103.69
2022-08-12T18:27:44.121Z,102102.63
2022-08-12T18:30:21.067Z,102108.13
2022-08-12T18:33:03.943Z,102106.16
2022-08-12T18:35:47.366Z,102109.66
2022-08-12T18:38:24.700Z,102109.06
2022-08-12T18:41:11.545Z,102112.91
2022-08-12T18:43:59.994Z,102115.44
2022-08-12T18:46:37.355Z,102094.03
2022-08-12T18:49:16.905Z,102118.84
2022-08-12T18:51:55.651Z,102116.91
2022-08-12T18:54:34.268Z,102112.03
2022-08-12T18:57:05.082Z,102111.22
2022-08-12T19:00:01.582Z,102115.06
2022-08-12T19:02:26.776Z,102118.78
2022-08-12T19:04:57.634Z,102119.69
2022-08-12T19:07:29.666Z,102094.59
2022-08-12T19:10:18.502Z,102120.38
2022-08-12T19:13:14.497Z,102110.94
2022-08-12T19:15:48.819Z,102109.56
2022-08-12T19:18:17.230Z,102115.94
2022-08-12T19:20:50.954Z,102118.63
2022-08-12T19:23:20.946Z,102106.16
2022-08-12T19:26:00.673Z,102124.22
2022-08-12T19:28:35.153Z,102118.63
2022-08-12T19:31:45.146Z,102110.94
2022-08-12T19:34:56.495Z,102113.03
2022-08-12T19:37:20.371Z,102115.97
2022-08-12T19:40:09.018Z,102118.00
2022-08-12T19:42:44.568Z,102121.81
2022-08-12T19:45:15.672Z,102116.56
2022-08-12T19:47:46.996Z,102106.00
2022-08-12T19:50:19.689Z,102084.84
2022-08-12T19:52:51.254Z,102117.41
2022-08-12T19:55:23.590Z,102109.59
2022-08-12T19:58:03.375Z,102106.00
2022-08-12T20:00:39.907Z,102104.34
2022-08-12T20:03:38.505Z,102113.47
2022-08-12T20:06:05.294Z,102108.13
2022-08-12T20:08:37.926Z,102112.47
2022-08-12T20:12:12.526Z,102105.78
2022-08-12T20:14:00.954Z,102116.66
2022-08-12T20:16:57.691Z,102113.16
2022-08-12T20:19:52.928Z,102118.63
2022-08-12T20:22:24.901Z,102105.56
2022-08-12T20:25:00.963Z,102113.47
2022-08-12T20:28:04.500Z,102117.63
2022-08-12T20:30:52.651Z,102113.75
2022-08-12T20:33:18.252Z,102114.03
2022-08-12T20:36:13.574Z,102109.00
2022-08-12T20:38:40.497Z,102103.63
2022-08-12T20:41:16.749Z,102101.13
2022-08-12T20:43:49.798Z,102107.50
2022-08-12T20:46:19.377Z,102098.88
2022-08-12T20:48:55.172Z,102107.28
2022-08-12T20:51:50.991Z,102108.34
2022-08-12T20:54:18.604Z,102112.09
2022-08-12T20:56:48.421Z,102110.56
2022-08-12T20:59:20.127Z,102109.75
2022-08-12T21:01:53.948Z,102107.84
2022-08-12T21:04:52.393Z,102108.66
2022-08-12T21:07:23.605Z,102103.38
2022-08-12T21:09:53.105Z,102105.22
2022-08-12T21:12:28.482Z,102102.69
2022-08-12T21:15:22.878Z,102101.84
2022-08-12T21:18:11.552Z,102107.28
2022-08-12T21:20:52.898Z,102101.72
2022-08-12T21:23:23.786Z,102107.13
2022-08-12T21:26:01.063Z,102107.22
2022-08-12T21:28:31.905Z,102107.28
2022-08-12T21:32:37.616Z,102107.09
2022-08-12T21:34:07.668Z,102106.81
2022-08-12T21:36:40.298Z,102110.44
2022-08-12T21:39:19.181Z,102106.31
2022-08-12T21:41:52.143Z,102100.31
2022-08-12T21:44:24.394Z,102103.75
2022-08-12T21:47:20.309Z,102094.72
2022-08-12T21:49:55.186Z,102106.97
2022-08-12T21:52:34.881Z,102089.53
2022-08-12T21:55:18.659Z,102096.94
2022-08-12T21:57:53.360Z,102109.41
2022-08-12T22:00:31.751Z,102109.53
2022-08-12T22:03:55.019Z,102107.75
2022-08-12T22:06:31.686Z,102108.78
2022-08-12T22:09:15.746Z,102108.09
2022-08-12T22:11:49.056Z,102101.00
2022-08-12T22:14:25.423Z,102104.38
2022-08-12T22:16:56.169Z,102104.38
2022-08-12T22:19:24.474Z,102106.28
2022-08-12T22:21:55.586Z,102119.84
2022-08-12T22:24:26.981Z,102108.66
2022-08-12T22:27:14.428Z,102114.97
2022-08-12T22:30:06.900Z,102112.34
2022-08-12T22:32:36.802Z,102109.72
2022-08-12T22:35:23.177Z,102117.56
2022-08-12T22:37:53.451Z,102115.72
2022-08-12T22:40:24.212Z,102116.06
2022-08-12T22:43:15.399Z,102112.69
2022-08-12T22:46:01.556Z,102112.63
2022-08-12T22:48:30.755Z,102114.56
2022-08-12T22:50:59.566Z,102121.53
2022-08-12T22:53:28.985Z,102120.16
2022-08-12T22:56:07.026Z,102128.38
2022-08-12T22:58:40.477Z,102126.81
2022-08-12T23:01:11.211Z,102127.84
2022-08-12T23:03:47.879Z,102130.53
2022-08-12T23:06:21.444Z,102121.81
2022-08-12T23:08:49.990Z,102126.31
2022-08-12T23:11:23.224Z,102132.66
2022-08-12T23:13:57.174Z,102126.31
2022-08-12T23:16:31.498Z,102130.03
2022-08-12T23:19:10.787Z,102130.06
2022-08-12T23:22:03.897Z,102136.16
2022-08-12T23:24:37.213Z,102132.84
2022-08-12T23:27:23.946Z,102129.09
2022-08-12T23:30:19.249Z,102110.88
2022-08-12T23:32:54.519Z,102129.34
2022-08-12T23:35:45.384Z,102120.53
2022-08-12T23:38:30.908Z,102127.41
2022-08-12T23:41:01.703Z,102128.00
2022-08-12T23:43:38.806Z,102121.81
2022-08-12T23:46:11.510Z,102113.06
2022-08-12T23:48:40.887Z,102089.28
2022-08-12T23:51:22.081Z,102116.47
2022-08-12T23:53:52.851Z,102095.41
2022-08-12T23:56:24.073Z,102094.53
2022-08-12T23:58:57.539Z,102113.88
